Time;durP1;ratioP1;P1;durP2;ratioP2;P2;SDS_P1;SDS_P2;PMS_P1;PMS_P2;Temp;Humidity;BMP_temperature;BMP_pressure;BME280_temperature;BME280_humidity;BME280_pressure;Samples;Min_cycle;Max_cycle;Signal;HPM_P1;HPM_P2
2022/05/11 00:00:40;;;;;;;10.57;8.65;;;;;;;20.05;61.98;100895.63;5109328;27;20067;-69
2022/05/11 00:03:07;;;;;;;15.07;8.98;;;;;;;20.17;61.29;100883.91;5109439;27;20047;-69
2022/05/11 00:05:36;;;;;;;17.58;9.43;;;;;;;20.23;60.73;100886.84;5110611;27;20496;-69
2022/05/11 00:08:03;;;;;;;11.13;8.48;;;;;;;20.40;60.74;100880.03;5109574;28;20495;-69
2022/05/11 00:10:29;;;;;;;12.63;9.35;;;;;;;20.33;60.93;100890.41;5108223;27;20051;-70
2022/05/11 00:12:57;;;;;;;11.68;8.98;;;;;;;19.86;62.20;100899.91;5107235;28;20488;-69
2022/05/11 00:15:25;;;;;;;12.65;8.88;;;;;;;20.00;61.88;100917.31;5108801;27;20126;-69
2022/05/11 00:17:51;;;;;;;12.43;8.50;;;;;;;20.29;61.11;100907.63;5109417;28;20055;-69
2022/05/11 00:20:20;;;;;;;13.82;9.00;;;;;;;20.55;60.09;100901.75;5112138;27;20459;-69
2022/05/11 00:22:47;;;;;;;12.13;8.95;;;;;;;20.79;59.53;100884.41;5109550;27;20136;-69
2022/05/11 00:25:15;;;;;;;15.27;9.43;;;;;;;20.82;58.82;100889.44;5109162;27;20507;-69
2022/05/11 00:27:42;;;;;;;13.05;8.63;;;;;;;20.53;59.87;100903.75;5109478;28;22470;-69
2022/05/11 00:30:11;;;;;;;18.90;8.57;;;;;;;20.65;59.42;100905.28;5107706;27;20100;-69
2022/05/11 00:32:38;;;;;;;17.00;8.63;;;;;;;20.73;59.66;100902.78;5108852;27;20574;-69
2022/05/11 00:35:05;;;;;;;18.15;8.30;;;;;;;20.62;60.19;100892.25;5108949;28;20071;-69
2022/05/11 00:37:32;;;;;;;12.43;9.23;;;;;;;20.17;61.37;100898.06;5109763;27;20071;-69
2022/05/11 00:39:59;;;;;;;17.25;9.20;;;;;;;20.44;60.41;100904.56;5108075;27;20075;-69
2022/05/11 00:42:26;;;;;;;15.55;9.95;;;;;;;20.43;60.48;100900.22;5107946;27;20071;-69
2022/05/11 00:44:54;;;;;;;20.65;10.38;;;;;;;20.73;59.52;100900.94;5108954;27;20056;-69
2022/05/11 00:47:25;;;;;;;16.45;9.52;;;;;;;20.52;60.47;100894.91;5109085;28;20547;-69
2022/05/11 00:49:53;;;;;;;15.30;9.40;;;;;;;20.52;60.12;100896.72;5104349;27;20141;-69
2022/05/11 00:52:23;;;;;;;14.40;9.75;;;;;;;20.42;60.62;100901.19;5105496;27;20517;-70
2022/05/11 00:54:55;;;;;;;15.48;9.57;;;;;;;20.50;60.25;100896.03;5109908;27;20055;-69
2022/05/11 00:57:30;;;;;;;15.20;8.77;;;;;;;20.51;60.34;100887.88;5107771;28;20063;-69
2022/05/11 00:59:57;;;;;;;15.65;9.10;;;;;;;20.36;61.11;100886.63;5106729;28;20479;-69
2022/05/11 01:02:24;;;;;;;15.00;9.52;;;;;;;20.37;61.12;100882.97;5107224;27;20070;-69
2022/05/11 01:04:54;;;;;;;11.13;9.48;;;;;;;20.43;60.84;100893.09;5107790;28;20051;-68
2022/05/11 01:07:21;;;;;;;12.20;9.05;;;;;;;20.60;60.03;100880.88;5107033;28;20108;-69
2022/05/11 01:09:47;;;;;;;16.67;9.27;;;;;;;20.57;60.37;100884.69;5103418;27;20737;-69
2022/05/11 01:12:20;;;;;;;18.40;9.65;;;;;;;20.55;60.09;100877.78;5105668;27;20341;-69
2022/05/11 01:14:52;;;;;;;12.68;8.88;;;;;;;20.61;60.80;100874.59;5108300;27;20055;-69
2022/05/11 01:17:19;;;;;;;13.50;9.60;;;;;;;20.35;61.90;100877.78;5108307;27;20048;-69
2022/05/11 01:19:47;;;;;;;10.45;8.90;;;;;;;20.54;61.21;100868.13;5106960;27;20705;-69
2022/05/11 01:22:19;;;;;;;13.32;9.07;;;;;;;20.53;61.58;100858.44;5107470;27;20112;-69
2022/05/11 01:24:50;;;;;;;11.65;9.60;;;;;;;20.32;62.75;100859.41;5107846;27;20047;-69
2022/05/11 01:27:31;;;;;;;18.85;9.32;;;;;;;20.20;62.46;100860.50;5107989;27;20048;-69
2022/05/11 01:30:00;;;;;;;10.95;9.32;;;;;;;20.15;61.92;100867.19;5101008;28;20093;-69
2022/05/11 01:32:28;;;;;;;12.80;9.57;;;;;;;20.15;61.90;100865.38;5109571;28;20051;-69
2022/05/11 01:35:01;;;;;;;16.95;10.40;;;;;;;19.94;62.33;100875.28;5109861;28;20131;-69
2022/05/11 01:37:28;;;;;;;14.10;10.07;;;;;;;19.77;62.99;100875.94;5110161;28;20096;-69
2022/05/11 01:39:56;;;;;;;16.88;9.52;;;;;;;19.85;62.61;100889.41;5104660;27;20101;-69
2022/05/11 01:42:22;;;;;;;19.92;10.68;;;;;;;19.96;62.26;100880.47;5110500;27;20043;-69
2022/05/11 01:44:48;;;;;;;18.38;10.07;;;;;;;19.78;63.33;100890.91;5109861;27;20085;-69
2022/05/11 01:47:15;;;;;;;16.00;9.70;;;;;;;19.55;64.33;100903.56;5110877;27;20039;-69
2022/05/11 01:49:41;;;;;;;15.80;9.50;;;;;;;19.64;64.24;100901.91;5108721;27;20101;-69
2022/05/11 01:52:07;;;;;;;17.00;10.52;;;;;;;19.78;63.43;100901.56;5109659;27;20714;-69
2022/05/11 01:54:34;;;;;;;16.30;10.30;;;;;;;19.99;62.92;100905.00;5109809;27;20039;-69
2022/05/11 01:57:02;;;;;;;20.60;9.57;;;;;;;20.11;62.35;100890.59;5110170;28;20043;-69
2022/05/11 01:59:28;;;;;;;13.07;9.93;;;;;;;20.12;62.24;100889.63;5113911;27;20103;-69
2022/05/11 02:01:55;;;;;;;14.38;10.05;;;;;;;19.76;63.22;100882.25;5109645;27;20561;-68
2022/05/11 02:09:55;;;;;;;16.58;9.48;;;;;;;19.73;64.14;100879.84;5107842;27;20043;-68
2022/05/11 02:12:22;;;;;;;11.88;9.25;;;;;;;18.93;66.38;100882.31;5099892;27;20051;-68
2022/05/11 02:14:49;;;;;;;18.65;10.05;;;;;;;19.04;66.48;100879.59;5117443;27;20067;-70
2022/05/11 02:17:15;;;;;;;14.15;9.40;;;;;;;19.36;65.58;100880.31;5109361;27;20071;-70
2022/05/11 02:19:41;;;;;;;12.38;9.02;;;;;;;19.51;64.94;100877.38;5107827;27;20453;-70
2022/05/11 02:22:09;;;;;;;13.85;9.02;;;;;;;19.60;64.79;100879.22;5108283;27;20055;-70
2022/05/11 02:24:35;;;;;;;17.30;9.65;;;;;;;19.38;65.31;100878.41;5109431;27;20049;-71
2022/05/11 02:27:03;;;;;;;16.60;10.20;;;;;;;19.52;65.02;100882.53;5109228;27;20056;-70
2022/05/11 02:29:30;;;;;;;13.55;9.65;;;;;;;19.68;64.59;100880.25;5105271;28;20044;-70
2022/05/11 02:31:57;;;;;;;14.32;9.68;;;;;;;19.76;64.16;100884.91;5109358;28;20100;-70
2022/05/11 02:37:07;;;;;;;13.73;9.52;;;;;;;19.85;63.91;100876.09;5108784;28;20446;-70
2022/05/11 02:39:34;;;;;;;17.52;9.90;;;;;;;19.86;63.90;100883.09;5103827;27;20039;-70
2022/05/11 02:42:00;;;;;;;14.20;10.15;;;;;;;19.81;64.40;100880.00;5109056;27;20105;-70
2022/05/11 02:44:27;;;;;;;19.73;10.10;;;;;;;19.96;63.85;100870.66;5109073;28;20058;-70
2022/05/11 02:46:55;;;;;;;13.48;10.07;;;;;;;19.98;63.46;100873.19;5094659;28;20073;-70
2022/05/11 02:49:22;;;;;;;14.70;9.45;;;;;;;19.59;65.25;100867.72;5108265;27;20039;-70
2022/05/11 02:51:48;;;;;;;15.57;11.27;;;;;;;19.36;66.36;100866.22;5107499;27;20081;-70
2022/05/11 02:54:14;;;;;;;15.45;10.00;;;;;;;18.92;67.98;100873.47;5109248;27;20063;-70
2022/05/11 02:56:41;;;;;;;16.83;10.32;;;;;;;18.77;68.85;100888.06;5108545;28;20040;-70
2022/05/11 02:59:08;;;;;;;15.68;10.10;;;;;;;19.26;67.14;100884.75;5108243;28;20076;-70
2022/05/11 03:01:35;;;;;;;12.68;9.95;;;;;;;19.47;66.42;100876.81;5108747;27;20040;-70
2022/05/11 03:04:02;;;;;;;12.88;9.52;;;;;;;19.64;65.53;100873.50;5103721;27;20637;-70
2022/05/11 03:06:29;;;;;;;14.80;10.35;;;;;;;19.80;65.03;100873.00;5095896;28;20097;-70
2022/05/11 03:08:55;;;;;;;16.25;10.20;;;;;;;19.70;65.12;100872.13;5095901;27;20456;-70
2022/05/11 03:11:21;;;;;;;18.02;10.77;;;;;;;19.45;66.24;100870.75;5108440;27;20073;-70
2022/05/11 03:13:48;;;;;;;13.18;10.57;;;;;;;19.33;66.37;100864.66;5108638;27;20089;-70
2022/05/11 03:16:14;;;;;;;12.07;10.15;;;;;;;19.30;66.56;100866.72;5108928;27;20058;-70
2022/05/11 03:18:40;;;;;;;12.75;9.95;;;;;;;19.38;66.52;100854.47;5104202;27;20093;-70
2022/05/11 03:21:08;;;;;;;15.02;10.80;;;;;;;18.86;68.13;100863.38;5107241;27;20067;-70
2022/05/11 03:23:35;;;;;;;13.82;10.38;;;;;;;17.93;71.76;100854.28;5103576;27;20064;-70
2022/05/11 03:26:01;;;;;;;16.73;10.82;;;;;;;18.20;71.39;100858.31;5107951;28;20117;-70
2022/05/11 03:28:28;;;;;;;17.95;11.13;;;;;;;18.46;70.19;100857.88;5108154;27;20556;-70
2022/05/11 03:30:54;;;;;;;11.63;10.25;;;;;;;18.51;69.97;100865.50;5108077;27;20071;-70
2022/05/11 03:36:05;;;;;;;18.35;11.98;;;;;;;17.97;72.35;100855.72;5116430;27;20064;-71
2022/05/11 03:38:33;;;;;;;17.90;11.70;;;;;;;18.42;70.98;100861.75;5107740;27;20040;-71
2022/05/11 03:41:00;;;;;;;18.80;11.95;;;;;;;18.39;71.10;100847.88;5111100;27;20051;-71
2022/05/11 03:43:26;;;;;;;16.25;11.20;;;;;;;18.24;71.75;100849.97;5112448;27;20116;-71
2022/05/11 03:45:52;;;;;;;17.25;11.27;;;;;;;17.99;73.44;100847.66;5121617;27;20039;-71
2022/05/11 03:48:18;;;;;;;15.57;11.43;;;;;;;17.99;73.72;100842.34;5118743;27;20495;-71
2022/05/11 03:50:45;;;;;;;16.10;11.77;;;;;;;18.02;73.76;100841.25;5111193;27;20096;-71
2022/05/11 03:53:11;;;;;;;17.58;13.68;;;;;;;17.98;73.56;100846.78;5111985;27;20097;-71
2022/05/11 03:55:39;;;;;;;16.67;12.95;;;;;;;18.27;72.69;100844.41;5110221;27;20479;-71
2022/05/11 03:58:05;;;;;;;17.17;11.77;;;;;;;18.51;71.80;100844.25;5114287;27;20441;-71
2022/05/11 04:00:32;;;;;;;15.50;12.40;;;;;;;18.42;71.98;100856.44;5121008;27;20122;-71
2022/05/11 04:02:59;;;;;;;18.38;12.48;;;;;;;18.63;71.33;100850.34;5111815;27;20043;-71
2022/05/11 04:05:26;;;;;;;17.02;12.38;;;;;;;18.29;72.95;100854.91;5103176;27;20065;-71
2022/05/11 04:07:52;;;;;;;17.63;13.00;;;;;;;18.30;72.91;100853.94;5110277;28;20048;-71
2022/05/11 04:10:19;;;;;;;15.40;12.75;;;;;;;18.14;73.61;100856.16;5106862;28;20071;-71
2022/05/11 04:12:47;;;;;;;18.65;13.57;;;;;;;18.29;73.24;100846.97;5110964;27;20053;-71
2022/05/11 04:15:15;;;;;;;22.63;14.13;;;;;;;18.65;71.89;100848.41;5111083;27;20097;-71
2022/05/11 04:17:42;;;;;;;17.52;13.25;;;;;;;18.36;72.97;100841.03;5111392;28;20091;-71
2022/05/11 04:20:11;;;;;;;19.85;13.18;;;;;;;18.46;72.24;100841.94;5110858;27;20046;-71
2022/05/11 04:22:38;;;;;;;18.08;13.20;;;;;;;18.51;72.19;100841.59;5111373;28;20464;-71
2022/05/11 04:25:05;;;;;;;17.90;14.05;;;;;;;18.86;70.81;100839.47;5111329;28;20040;-71
2022/05/11 04:27:31;;;;;;;21.23;13.30;;;;;;;19.18;69.47;100831.41;5119700;27;20043;-71
2022/05/11 04:29:59;;;;;;;19.23;13.50;;;;;;;19.48;67.67;100827.94;5125662;27;20092;-71
2022/05/11 04:32:26;;;;;;;21.60;13.82;;;;;;;19.76;66.85;100823.69;5111292;27;20046;-71
2022/05/11 04:34:53;;;;;;;17.58;13.90;;;;;;;19.29;67.83;100818.03;5111468;27;20093;-71
2022/05/11 04:37:19;;;;;;;19.83;13.65;;;;;;;19.53;67.04;100809.75;5111598;27;20552;-71
2022/05/11 04:39:46;;;;;;;20.30;14.15;;;;;;;19.73;66.13;100808.03;5105923;27;20063;-71
2022/05/11 04:42:12;;;;;;;19.25;13.35;;;;;;;19.13;67.94;100812.38;5114877;27;20601;-71
2022/05/11 04:44:39;;;;;;;17.25;13.38;;;;;;;19.27;67.92;100811.16;5110155;27;20093;-71
2022/05/11 04:47:08;;;;;;;20.70;14.38;;;;;;;18.52;70.67;100824.66;5111180;27;20120;-71
2022/05/11 04:49:35;;;;;;;19.63;14.35;;;;;;;18.69;70.57;100816.16;5107144;28;20070;-71
2022/05/11 04:52:07;;;;;;;23.00;14.55;;;;;;;18.70;71.40;100811.69;5111414;27;20043;-71
2022/05/11 04:54:35;;;;;;;20.45;14.75;;;;;;;18.79;70.96;100803.78;5111224;28;20071;-71
2022/05/11 04:57:01;;;;;;;25.80;15.10;;;;;;;18.69;71.16;100810.84;5128762;27;20104;-71
2022/05/11 04:59:28;;;;;;;16.67;14.23;;;;;;;18.53;71.63;100815.75;5114123;27;20035;-71
2022/05/11 05:01:54;;;;;;;18.60;14.88;;;;;;;18.73;71.14;100814.09;5110770;27;20051;-71
2022/05/11 05:04:22;;;;;;;18.67;14.70;;;;;;;19.07;69.54;100818.19;5110475;27;20035;-71
2022/05/11 05:06:49;;;;;;;17.55;14.13;;;;;;;18.37;72.43;100826.75;5110743;27;20047;-71
2022/05/11 05:09:15;;;;;;;22.38;15.02;;;;;;;19.20;69.49;100810.00;5107112;27;20483;-71
2022/05/11 05:11:41;;;;;;;21.67;14.32;;;;;;;19.22;69.32;100818.69;5110072;27;20116;-71
2022/05/11 05:14:08;;;;;;;19.00;15.30;;;;;;;18.96;69.54;100828.88;5110096;27;20112;-71
2022/05/11 05:16:35;;;;;;;17.30;13.70;;;;;;;18.92;70.93;100808.88;5090560;28;20040;-71
2022/05/11 05:19:01;;;;;;;20.50;14.90;;;;;;;19.02;70.99;100811.59;5089652;28;20097;-71
2022/05/11 05:21:29;;;;;;;20.42;14.85;;;;;;;19.33;69.78;100800.84;5109750;27;20148;-71
2022/05/11 05:23:55;;;;;;;23.77;15.07;;;;;;;19.31;70.06;100800.13;5110503;27;20048;-71
2022/05/11 05:26:22;;;;;;;19.20;14.77;;;;;;;19.08;70.67;100798.63;5110810;27;20071;-71
2022/05/11 05:31:32;;;;;;;21.20;15.00;;;;;;;18.94;72.29;100801.63;5110417;28;20375;-71
2022/05/11 05:33:59;;;;;;;26.58;15.32;;;;;;;18.99;71.53;100804.75;5110349;27;20075;-71
2022/05/11 05:36:27;;;;;;;20.27;14.73;;;;;;;18.52;72.90;100813.22;5109846;28;20410;-71
2022/05/11 05:38:55;;;;;;;20.55;15.70;;;;;;;18.58;72.69;100810.06;5111852;27;20158;-71
2022/05/11 05:41:22;;;;;;;19.45;15.00;;;;;;;18.53;73.41;100805.13;5110017;27;20412;-71
2022/05/11 05:43:48;;;;;;;18.67;15.02;;;;;;;19.27;70.27;100803.19;5109778;28;20044;-71
2022/05/11 05:46:16;;;;;;;18.52;14.43;;;;;;;18.67;72.75;100802.16;5109713;28;20479;-71
2022/05/11 05:48:42;;;;;;;16.75;13.63;;;;;;;18.63;73.14;100806.03;5109486;28;20560;-71
2022/05/11 05:51:10;;;;;;;20.30;14.02;;;;;;;18.82;72.58;100803.50;5112621;27;20738;-71
2022/05/11 05:53:37;;;;;;;17.70;13.10;;;;;;;18.42;73.29;100803.34;5112568;27;20060;-71
2022/05/11 05:56:05;;;;;;;15.02;13.02;;;;;;;18.60;73.07;100805.44;5109441;28;20048;-71
2022/05/11 05:58:32;;;;;;;16.55;12.45;;;;;;;18.95;71.42;100798.00;5109960;28;20049;-71
2022/05/11 06:01:01;;;;;;;16.50;11.98;;;;;;;18.86;71.03;100796.13;5108796;27;20044;-71
2022/05/11 06:03:32;;;;;;;17.52;12.02;;;;;;;19.68;69.15;100786.28;5109638;27;20105;-71
2022/05/11 06:05:58;;;;;;;16.73;11.03;;;;;;;19.53;68.99;100792.97;5109805;27;20044;-71
2022/05/11 06:08:25;;;;;;;12.48;9.45;;;;;;;19.15;68.14;100785.63;5109474;28;20407;-71
2022/05/11 06:10:53;;;;;;;11.73;9.20;;;;;;;19.66;65.55;100782.94;5108769;28;20043;-71
2022/05/11 06:13:22;;;;;;;11.38;8.43;;;;;;;19.81;64.27;100778.88;5109016;27;20043;-71
2022/05/11 06:15:50;;;;;;;13.32;8.27;;;;;;;19.92;62.37;100779.59;5109552;27;20088;-71
2022/05/11 06:18:17;;;;;;;11.82;7.95;;;;;;;20.08;61.41;100781.72;5109273;28;20548;-71
2022/05/11 06:20:43;;;;;;;11.05;7.50;;;;;;;20.44;58.93;100774.88;5108782;27;20120;-71
2022/05/11 06:23:10;;;;;;;11.85;7.10;;;;;;;20.17;60.96;100774.75;5109683;28;20069;-71
2022/05/11 06:25:38;;;;;;;15.15;7.60;;;;;;;20.43;59.25;100769.72;5107632;28;20112;-71
2022/05/11 06:28:06;;;;;;;14.05;7.20;;;;;;;20.32;58.48;100771.53;5109378;28;20396;-71
2022/05/11 06:30:35;;;;;;;9.32;6.10;;;;;;;20.46;58.93;100777.44;5107722;28;20054;-71
2022/05/11 06:33:01;;;;;;;11.15;6.65;;;;;;;20.54;58.27;100777.56;5109275;28;20047;-71
2022/05/11 06:35:29;;;;;;;12.00;6.97;;;;;;;19.90;59.75;100778.06;5103775;28;20067;-70
2022/05/11 06:37:57;;;;;;;10.38;6.82;;;;;;;20.38;58.97;100763.00;5108950;28;20411;-70
2022/05/11 06:40:24;;;;;;;8.35;6.70;;;;;;;20.81;57.01;100764.31;5108195;28;20445;-70
2022/05/11 06:42:50;;;;;;;12.60;7.40;;;;;;;20.45;58.49;100763.25;5108574;27;20088;-70
2022/05/11 06:45:17;;;;;;;13.23;7.20;;;;;;;20.18;59.69;100763.09;5108088;28;20051;-70
2022/05/11 06:47:44;;;;;;;20.20;7.68;;;;;;;20.57;59.72;100759.47;5117663;27;20039;-70
2022/05/11 06:50:12;;;;;;;9.75;7.38;;;;;;;20.18;58.97;100750.63;5126135;27;20092;-73
2022/05/11 06:52:38;;;;;;;7.13;6.32;;;;;;;20.96;58.20;100744.22;5108189;28;20047;-70
2022/05/11 07:00:35;;;;;;;14.15;6.35;;;;;;;21.30;54.61;100742.69;5113250;27;20051;-70
2022/05/11 07:03:04;;;;;;;9.80;5.60;;;;;;;20.96;54.25;100736.22;5108834;28;20063;-70
2022/05/11 07:05:32;;;;;;;8.45;6.50;;;;;;;20.88;55.73;100733.44;5103024;28;20499;-70
2022/05/11 07:07:59;;;;;;;11.77;6.85;;;;;;;21.57;56.04;100728.53;5108848;28;20039;-70
2022/05/11 07:10:26;;;;;;;8.82;5.95;;;;;;;21.79;52.82;100730.75;5108934;28;20094;-70
2022/05/11 07:12:52;;;;;;;11.35;6.10;;;;;;;22.27;53.58;100730.41;5126511;27;20448;-71
2022/05/11 07:15:21;;;;;;;11.60;6.20;;;;;;;23.26;51.39;100712.97;5111765;27;20772;-71
2022/05/11 07:17:49;;;;;;;9.18;6.47;;;;;;;23.29;50.35;100717.16;5112612;27;20073;-71
2022/05/11 07:20:21;;;;;;;6.70;5.95;;;;;;;22.53;51.20;100724.25;5111400;27;20052;-71
2022/05/11 07:22:47;;;;;;;9.93;6.65;;;;;;;23.05;50.46;100712.56;5111707;27;20055;-71
2022/05/11 07:25:16;;;;;;;9.13;6.78;;;;;;;22.91;51.29;100715.00;5112308;27;20195;-71
2022/05/11 07:27:44;;;;;;;12.23;7.38;;;;;;;23.11;51.84;100714.59;5111939;27;20504;-71
2022/05/11 07:30:13;;;;;;;7.97;7.18;;;;;;;22.72;52.18;100700.03;5111911;27;20067;-71
2022/05/11 07:32:40;;;;;;;10.68;8.20;;;;;;;22.98;51.82;100705.34;5112692;27;20048;-71
2022/05/11 07:35:07;;;;;;;11.57;8.60;;;;;;;23.12;52.97;100692.19;5111044;27;20055;-71
2022/05/11 07:37:35;;;;;;;12.23;8.18;;;;;;;22.54;53.31;100683.97;5091408;28;20089;-71
2022/05/11 07:40:01;;;;;;;10.48;8.57;;;;;;;22.87;51.59;100681.56;5109808;27;20039;-71
2022/05/11 07:42:29;;;;;;;10.88;8.70;;;;;;;22.80;53.41;100689.34;5112045;27;20104;-71
2022/05/11 07:44:56;;;;;;;9.32;8.15;;;;;;;23.43;50.92;100672.94;5112652;27;20043;-71
2022/05/11 07:47:22;;;;;;;12.32;9.02;;;;;;;23.19;50.83;100684.34;5109096;28;20104;-71
2022/05/11 07:49:49;;;;;;;11.30;8.38;;;;;;;22.92;52.50;100682.72;5112155;27;20430;-71
2022/05/11 07:52:16;;;;;;;10.32;8.85;;;;;;;22.88;52.47;100677.84;5120587;27;20047;-71
2022/05/11 07:54:44;;;;;;;15.52;9.10;;;;;;;23.03;53.30;100690.47;5111892;27;20085;-71
2022/05/11 07:59:57;;;;;;;12.88;9.15;;;;;;;23.89;50.85;100680.38;5111901;28;20123;-71
2022/05/11 08:02:26;;;;;;;9.30;8.13;;;;;;;23.98;49.18;100670.50;5111572;28;20824;-71
2022/05/11 08:04:57;;;;;;;11.82;8.45;;;;;;;24.07;49.78;100664.97;5111202;27;20091;-71
2022/05/11 08:07:26;;;;;;;13.38;8.90;;;;;;;24.08;49.09;100673.84;5111617;27;20479;-71
2022/05/11 08:09:56;;;;;;;12.40;8.95;;;;;;;24.03;49.66;100674.34;5102016;27;20078;-71
2022/05/11 08:12:23;;;;;;;13.02;8.15;;;;;;;24.45;49.16;100670.66;5107552;27;20036;-71
2022/05/11 08:14:49;;;;;;;12.73;8.85;;;;;;;23.77;49.65;100668.28;5111804;28;20063;-71
2022/05/11 08:17:15;;;;;;;10.95;7.90;;;;;;;24.43;48.75;100664.63;5112081;28;20548;-70
2022/05/11 08:19:43;;;;;;;11.32;8.00;;;;;;;24.34;49.99;100665.66;5111362;28;20044;-71
2022/05/11 08:22:09;;;;;;;12.90;8.80;;;;;;;24.33;48.47;100655.94;5111870;28;20044;-71
2022/05/11 08:24:37;;;;;;;17.88;8.40;;;;;;;23.54;51.56;100660.06;5112342;27;20475;-70
2022/05/11 08:27:09;;;;;;;11.63;8.73;;;;;;;23.99;50.82;100650.72;5110626;27;20103;-70
2022/05/11 08:35:04;;;;;;;9.50;7.32;;;;;;;25.12;47.26;100646.00;5111503;28;20047;-70
2022/05/11 08:37:31;;;;;;;15.20;8.57;;;;;;;25.11;47.48;100632.75;5111979;28;20515;-70
2022/05/11 08:39:57;;;;;;;10.80;7.97;;;;;;;25.62;47.36;100631.28;5110577;27;20068;-70
2022/05/11 08:42:27;;;;;;;17.88;7.78;;;;;;;26.02;45.85;100633.66;5110342;28;20047;-70
2022/05/11 08:44:53;;;;;;;10.63;7.68;;;;;;;26.12;45.40;100626.19;5112435;27;20044;-71
2022/05/11 08:47:30;;;;;;;12.23;7.50;;;;;;;26.19;45.89;100629.00;5107672;27;20097;-71
2022/05/11 08:50:06;;;;;;;13.35;7.30;;;;;;;25.86;45.83;100623.06;5098980;27;20036;-71
2022/05/11 08:52:40;;;;;;;8.55;6.30;;;;;;;25.05;46.84;100631.63;5100910;28;20496;-71
2022/05/11 08:55:10;;;;;;;10.75;6.50;;;;;;;25.70;45.38;100620.50;5108414;27;20146;-70
2022/05/11 08:57:39;;;;;;;8.93;6.30;;;;;;;25.92;44.37;100622.31;5111866;27;20552;-70
2022/05/11 09:00:10;;;;;;;11.48;6.60;;;;;;;26.56;43.29;100609.28;5095104;28;20072;-70
2022/05/11 09:02:47;;;;;;;9.18;5.90;;;;;;;27.01;41.65;100608.25;5111262;28;20043;-70
2022/05/11 09:05:14;;;;;;;10.30;5.57;;;;;;;27.02;40.99;100605.34;5111369;27;20513;-70
2022/05/11 09:07:44;;;;;;;11.13;5.65;;;;;;;26.78;41.22;100588.69;5111459;27;20039;-70
2022/05/11 09:10:14;;;;;;;8.27;5.30;;;;;;;26.93;42.24;100595.75;5106366;27;20054;-70
2022/05/11 09:12:42;;;;;;;9.25;4.28;;;;;;;27.91;37.46;100584.31;5111712;28;20201;-71
2022/05/11 09:15:09;;;;;;;5.85;4.20;;;;;;;28.14;35.96;100582.25;5109949;27;20089;-71
2022/05/11 09:17:40;;;;;;;8.52;4.53;;;;;;;28.47;35.97;100580.59;5108511;27;20048;-71
2022/05/11 09:20:09;;;;;;;11.07;4.18;;;;;;;29.53;35.15;100578.34;5109005;28;20043;-71
2022/05/11 09:22:38;;;;;;;8.43;4.25;;;;;;;29.46;34.58;100573.75;5110867;28;20048;-71
2022/05/11 09:25:16;;;;;;;7.07;4.32;;;;;;;29.30;35.08;100574.16;5111762;27;20053;-71
2022/05/11 09:27:44;;;;;;;9.25;4.00;;;;;;;29.10;33.60;100572.38;5090721;28;20044;-71
2022/05/11 09:30:18;;;;;;;8.05;4.30;;;;;;;28.94;34.89;100571.72;5090946;28;20048;-71
2022/05/11 09:32:45;;;;;;;9.18;4.38;;;;;;;28.38;34.50;100576.38;5091100;28;20052;-71
2022/05/11 09:35:22;;;;;;;6.07;4.10;;;;;;;27.70;37.57;100562.81;5109317;28;20043;-71
2022/05/11 09:37:58;;;;;;;12.30;4.53;;;;;;;26.94;37.96;100562.41;5090694;28;20044;-71
2022/05/11 09:40:25;;;;;;;7.07;4.20;;;;;;;27.30;36.90;100553.50;5105707;27;20454;-71
2022/05/11 09:42:55;;;;;;;5.43;4.47;;;;;;;27.76;37.35;100560.16;5110150;27;20432;-71
2022/05/11 09:45:43;;;;;;;7.25;4.20;;;;;;;28.52;36.68;100544.94;5110551;27;20040;-71
2022/05/11 09:48:22;;;;;;;6.78;4.00;;;;;;;28.40;35.68;100552.75;5110702;28;20063;-71
2022/05/11 09:50:53;;;;;;;9.38;4.13;;;;;;;28.60;35.60;100547.47;5103330;28;20056;-71
2022/05/11 09:53:29;;;;;;;6.82;4.03;;;;;;;28.50;34.96;100555.09;5100318;27;20126;-71
2022/05/11 09:55:56;;;;;;;6.43;4.05;;;;;;;28.38;35.12;100548.63;5110916;27;20493;-71
2022/05/11 09:58:33;;;;;;;8.90;4.63;;;;;;;29.04;34.08;100543.50;5121131;27;20036;-71
2022/05/11 10:01:13;;;;;;;12.60;4.95;;;;;;;28.67;35.07;100548.34;5110441;28;20081;-71
2022/05/11 10:03:45;;;;;;;8.55;4.10;;;;;;;27.86;35.29;100531.00;5133037;28;20049;-71
2022/05/11 10:06:13;;;;;;;8.40;4.30;;;;;;;28.52;34.13;100534.16;5123730;28;20498;-71
2022/05/11 10:08:44;;;;;;;7.60;3.97;;;;;;;29.11;33.05;100544.34;5107058;28;20044;-71
2022/05/11 10:11:18;;;;;;;8.80;4.63;;;;;;;29.95;32.04;100529.28;5114024;28;20063;-71
2022/05/11 10:13:53;;;;;;;5.75;3.92;;;;;;;29.76;30.99;100527.41;5113412;28;20056;-71
2022/05/11 10:22:12;;;;;;;6.15;3.97;;;;;;;29.81;31.64;100508.69;5112634;28;20127;-71
2022/05/11 10:24:53;;;;;;;8.57;4.90;;;;;;;29.78;32.20;100504.53;5116649;27;20039;-71
2022/05/11 10:27:32;;;;;;;8.75;4.22;;;;;;;30.51;31.43;100510.66;5105618;28;20085;-71
2022/05/11 10:30:07;;;;;;;8.23;3.90;;;;;;;29.91;31.22;100512.66;5111813;28;20035;-73
2022/05/11 10:32:42;;;;;;;5.50;3.70;;;;;;;29.58;32.09;100517.22;5112722;28;20043;-73
2022/05/11 10:35:14;;;;;;;7.10;4.03;;;;;;;29.26;32.47;100515.31;5112466;28;20442;-72
2022/05/11 10:38:02;;;;;;;7.13;4.10;;;;;;;29.19;33.27;100509.91;5112539;28;20446;-73
2022/05/11 10:40:33;;;;;;;5.60;4.10;;;;;;;28.59;33.12;100513.44;5111061;28;20036;-73
2022/05/11 10:43:15;;;;;;;8.63;4.33;;;;;;;28.50;34.54;100509.22;5111285;28;20361;-73
2022/05/11 10:45:47;;;;;;;;;;;;;;;28.09;34.66;100509.22;5112625;28;20569;-73
2022/05/11 10:48:35;;;;;;;7.93;4.18;;;;;;;27.96;32.90;100501.03;5111317;28;20385;-72
2022/05/11 10:51:09;;;;;;;6.28;3.63;;;;;;;27.86;32.65;100503.25;5110592;27;20042;-72
2022/05/11 10:53:42;;;;;;;7.40;4.07;;;;;;;28.17;32.15;100497.44;5111287;27;20043;-73
2022/05/11 10:56:33;;;;;;;6.82;3.70;;;;;;;27.79;32.38;100497.00;5090990;28;20048;-73
2022/05/11 10:59:15;;;;;;;6.15;3.70;;;;;;;27.70;32.71;100490.91;5107556;27;20130;-73
2022/05/11 11:01:52;;;;;;;11.45;4.63;;;;;;;28.02;32.82;100503.75;5110237;28;20040;-73
2022/05/11 11:04:31;;;;;;;8.50;4.07;;;;;;;28.30;31.85;100487.59;5110174;28;20051;-74
2022/05/11 11:07:13;;;;;;;4.68;3.40;;;;;;;28.50;32.02;100487.66;5110424;28;20502;-73
2022/05/11 11:09:52;;;;;;;10.90;4.68;;;;;;;28.47;32.64;100485.34;5108656;28;20043;-74
2022/05/11 11:12:34;;;;;;;8.48;3.83;;;;;;;29.14;31.97;100493.47;5109556;28;20047;-73
2022/05/11 11:15:06;;;;;;;7.85;4.00;;;;;;;30.01;32.02;100487.88;5108866;28;20043;-72
2022/05/11 11:17:34;;;;;;;;;;;;;;;30.36;27.68;100469.47;5125216;27;20047;-74
2022/05/11 11:20:03;;;;;;;5.55;2.92;;;;;;;29.48;27.54;100468.19;5129046;27;20391;-74
2022/05/11 11:23:02;;;;;;;6.90;3.75;;;;;;;29.82;27.68;100462.50;5110089;27;20047;-73
2022/05/11 11:25:42;;;;;;;6.57;3.40;;;;;;;30.47;27.75;100452.59;5108411;28;20040;-74
2022/05/11 11:28:12;;;;;;;8.35;3.63;;;;;;;30.69;27.69;100462.06;5108839;28;20035;-75
2022/05/11 11:30:39;;;;;;;7.07;3.10;;;;;;;30.99;26.43;100456.91;5108421;28;20520;-74
2022/05/11 11:33:23;;;;;;;11.23;3.70;;;;;;;31.33;26.40;100456.47;5108298;28;20049;-73
2022/05/11 11:35:54;;;;;;;6.13;3.10;;;;;;;31.04;24.98;100457.09;5108736;28;20043;-73
2022/05/11 11:38:28;;;;;;;5.78;2.90;;;;;;;31.09;24.81;100445.59;5108501;28;20044;-74
2022/05/11 11:41:15;;;;;;;7.35;3.08;;;;;;;30.85;25.75;100447.19;5107866;28;20047;-73
2022/05/11 11:43:52;;;;;;;5.22;3.25;;;;;;;30.72;26.47;100436.44;5108582;28;20844;-74
2022/05/11 11:46:38;;;;;;;8.50;3.22;;;;;;;30.53;26.65;100438.19;5108760;28;20059;-74
2022/05/11 11:49:09;;;;;;;11.20;3.83;;;;;;;30.51;26.42;100444.88;5107803;28;20044;-74
2022/05/11 11:51:56;;;;;;;6.37;3.37;;;;;;;30.10;26.86;100432.53;5108639;28;20578;-74
2022/05/11 11:54:48;;;;;;;7.85;3.03;;;;;;;29.25;27.96;100443.41;5114180;27;20286;-73
2022/05/11 11:57:29;;;;;;;10.43;3.13;;;;;;;29.15;27.70;100443.00;5111339;27;20092;-75
2022/05/11 11:59:58;;;;;;;8.73;5.47;;;;;;;29.18;28.27;100439.91;5091420;28;20048;-76